West Panama City Beach, Florida
Current Conditions -  °F | °C
As of 11:53 PM on Wednesday 28 Jan 2015 (Local Time) from KECP Reporting Station
Clear Clear  
Wind Chill: 38°   Ceiling: Unl
Heat Index: 41°   Visibility: 10mi
Dew Point: 36°   Wind: 5mph
Humidity: 82%   Direction: 70°ENE
Pressure: 30.27"   Gusts: NA
Location:  30.3525°N, 85.9093°W
Report Text: KECP 290553Z AUTO 07004KT 10SM CLR 05/02 A3027 RMK AO2 SLP261 T00500022 10083 20033 401610017 58006
Loading
Personal Weather Stations






























Interactive Weather Map New forecast layout! Learn more

10-Day Weather Forecast

Advertisements
Track Severe Weather on mobile